Chadstone Weather > Observations for 14/10/20

Select Day:



Observations
Time Temp Hum DP Wind Gust Dir Rain >9am Press
C % C kph kph mm hPa
00:00 13.1 87 11.0 3.3 8.6 ESE 0.0 1031.9
00:10 13.1 88 11.2 4.1 9.7 SE 0.0 1031.9
00:20 13.0 88 11.1 3.5 7.2 SE 0.0 1031.8
00:30 12.9 88 11.0 3.5 7.2 SE 0.0 1031.8
00:40 12.8 88 10.9 5.3 12.2 ESE 0.0 1031.8
00:50 12.7 88 10.8 5.6 12.2 SE 0.0 1031.6
01:00 12.7 88 10.8 5.1 8.6 SSE 0.0 1031.6
01:10 12.6 89 10.8 3.3 8.6 SSE 0.0 1031.6
01:20 12.5 89 10.7 4.0 9.7 SSE 0.0 1031.3
01:30 12.4 89 10.6 3.0 7.2 E 0.0 1031.0
01:40 12.3 89 10.5 3.3 11.2 ESE 0.0 1030.8
01:50 12.2 90 10.6 2.8 7.2 SSE 0.0 1030.5
02:00 12.3 90 10.7 0.9 7.2 SE 0.0 1030.3
02:10 12.4 90 10.8 1.1 6.1 SE 0.0 1030.2
02:20 12.5 91 11.1 3.5 7.2 SE 0.0 1030.2
02:30 12.6 91 11.2 3.0 7.2 SE 0.0 1029.9
02:40 12.7 91 11.3 1.5 6.1 ESE 0.0 1029.9
02:50 12.8 91 11.4 0.2 5.0 ESE 0.0 1029.8
03:00 12.7 90 11.1 0.0 0.0 N 0.0 1029.7
03:10 12.5 90 10.9 0.0 0.0 N 0.0 1029.4
03:20 12.4 90 10.8 0.0 0.0 N 0.0 1029.4
03:30 12.1 90 10.5 0.1 3.6 SE 0.0 1029.4
03:40 12.1 90 10.5 0.0 0.0 N 0.0 1029.4
03:50 12.1 91 10.7 0.0 2.5 SE 0.0 1029.4
04:00 12.1 91 10.7 0.2 3.6 SE 0.0 1029.5
04:10 12.2 91 10.8 0.0 0.0 N 0.0 1029.4
04:20 12.2 91 10.8 0.0 0.0 N 0.0 1029.4
04:30 12.3 91 10.9 0.1 2.5 SSE 0.0 1029.5
04:40 12.5 91 11.1 0.0 0.0 N 0.0 1029.4
04:50 12.6 91 11.2 0.0 0.0 N 0.0 1029.4
05:00 12.5 91 11.1 0.0 0.0 N 0.0 1029.3
05:10 12.6 91 11.2 0.0 2.5 SSE 0.0 1029.3
05:20 12.6 91 11.2 0.0 0.0 N 0.0 1029.3
05:30 12.6 91 11.2 0.0 0.0 N 0.0 1029.3
05:40 12.7 91 11.3 0.0 0.0 N 0.0 1029.2
05:50 12.7 91 11.3 0.0 0.0 N 0.0 1029.2
06:00 12.7 91 11.3 0.0 0.0 N 0.0 1029.2
06:10 12.7 91 11.3 0.0 0.0 N 0.0 1029.3
06:20 12.7 91 11.3 0.0 0.0 N 0.0 1029.3
06:30 13.1 90 11.5 1.2 5.0 N 0.0 1029.3
06:40 13.2 90 11.6 1.0 5.0 NNE 0.0 1029.3
06:50 13.2 90 11.6 1.8 6.1 N 0.0 1029.5
07:00 13.3 90 11.7 3.8 9.7 NE 0.0 1029.6
07:10 13.3 90 11.7 3.8 9.7 NNE 0.0 1029.7
07:20 13.3 90 11.7 0.7 3.6 NW 0.0 1029.8
07:30 13.2 89 11.4 0.7 5.0 NNW 0.0 1029.8
07:40 13.2 90 11.6 1.0 6.1 N 0.0 1030.0
07:50 13.2 90 11.6 4.6 9.7 NNE 0.0 1030.1
08:00 13.3 90 11.7 0.7 3.6 NNW 0.0 1030.0
08:10 13.3 89 11.5 2.0 7.2 N 0.0 1030.2
08:20 13.3 89 11.5 1.5 6.1 NE 0.0 1030.3
08:30 13.4 89 11.6 1.4 5.0 NE 0.0 1030.2
08:40 13.5 89 11.7 0.2 3.6 E 0.0 1030.1
08:50 13.6 89 11.8 1.6 7.2 E 0.0 1030.0
09:00 13.8 89 12.0 1.8 6.1 E 0.0 1030.1
09:10 14.0 87 11.9 1.4 6.1 E 0.0 1030.1
09:20 14.2 87 12.1 1.8 6.1 ENE 0.0 1030.3
09:30 14.3 86 12.0 1.1 6.1 ENE 0.0 1030.2
09:40 14.4 86 12.1 2.2 6.1 ESE 0.0 1030.2
09:50 14.6 86 12.3 1.1 6.1 SE 0.0 1030.2
10:00 14.8 85 12.3 2.5 8.6 NE 0.0 1030.1
10:10 15.0 84 12.3 0.9 7.2 NE 0.0 1030.0
10:20 15.1 84 12.4 2.1 7.2 NNW 0.0 1030.1
10:30 15.3 83 12.4 2.1 8.6 WNW 0.0 1030.1
10:40 15.6 83 12.7 0.0 2.5 NW 0.0 1030.0
10:50 16.2 81 12.9 0.4 3.6 W 0.0 1029.8
11:00 16.6 78 12.8 2.5 9.7 N 0.0 1029.6
11:10 16.9 75 12.4 3.7 8.6 SSE 0.0 1029.4
11:20 17.8 73 12.9 3.5 11.2 SSE 0.0 1029.2
11:30 18.0 71 12.7 3.0 8.6 NNW 0.0 1029.0
11:40 18.2 69 12.4 3.6 7.2 NW 0.0 1028.9
11:50 18.5 69 12.7 0.5 5.0 SW 0.0 1028.9
12:00 19.0 67 12.7 3.2 8.6 NNE 0.0 1028.7
12:10 19.6 66 13.1 3.7 9.7 NNW 0.0 1028.4
12:20 20.1 63 12.8 4.1 11.2 NNE 0.0 1028.7
12:30 20.3 61 12.5 4.5 12.2 NNE 0.0 1028.7
12:40 20.6 60 12.6 4.7 13.3 NNW 0.0 1028.6
12:50 20.8 57 12.0 4.1 13.3 NNW 0.0 1028.4
13:00 21.1 56 12.0 4.7 11.2 WNW 0.0 1028.2
13:10 21.5 56 12.4 4.0 12.2 N 0.0 1028.0
13:20 21.8 54 12.1 5.6 12.2 N 0.0 1027.8
13:30 22.1 52 11.8 3.7 8.6 NW 0.0 1027.4
13:40 22.7 51 12.1 3.8 8.6 NW 0.0 1027.1
13:50 23.0 49 11.7 3.7 11.2 WNW 0.0 1026.7
14:00 23.4 47 11.5 4.8 13.3 NNW 0.0 1026.4
14:10 23.5 48 11.9 4.1 9.7 WNW 0.0 1026.2
14:20 23.6 48 12.0 3.0 7.2 WNW 0.0 1026.1
14:30 23.7 46 11.4 5.8 12.2 NE 0.0 1025.9
14:40 23.7 46 11.4 3.0 9.7 NNE 0.0 1025.9
14:50 23.7 46 11.4 3.9 11.2 SE 0.0 1025.7
15:00 23.7 47 11.7 2.0 7.2 SSW 0.0 1025.6
15:10 23.9 49 12.6 2.9 14.8 SSW 0.0 1025.5
15:20 23.3 50 12.3 3.5 9.7 S 0.0 1025.4
15:30 23.3 50 12.3 4.4 14.8 S 0.0 1025.4
15:40 23.2 51 12.5 3.3 14.8 WSW 0.0 1025.3
15:50 23.2 52 12.8 4.6 15.8 SSW 0.0 1025.2
16:00 22.9 52 12.5 4.0 14.8 WSW 0.0 1025.4
16:10 22.5 52 12.2 4.5 13.3 SW 0.0 1025.4
16:20 22.4 53 12.4 2.2 11.2 SSW 0.0 1025.5
16:30 22.6 52 12.3 3.8 13.3 SSE 0.0 1025.5
16:40 22.6 52 12.3 5.1 12.2 SSE 0.0 1025.2
16:50 22.5 52 12.2 5.3 12.2 SE 0.0 1025.2
17:00 22.2 53 12.2 2.6 11.2 S 0.0 1025.2
17:10 22.2 53 12.2 2.8 11.2 S 0.0 1025.4
17:20 22.2 53 12.2 2.7 9.7 S 0.0 1025.5
17:30 22.2 55 12.7 2.1 8.6 SSW 0.0 1025.4
17:40 21.9 54 12.2 2.7 8.6 S 0.0 1025.5
17:50 21.3 54 11.6 3.9 11.2 SSE 0.0 1025.7
18:00 21.0 55 11.6 2.6 12.2 SSW 0.0 1025.9
18:10 20.8 57 12.0 2.8 13.3 SSW 0.0 1025.8
18:20 20.5 59 12.2 3.3 11.2 S 0.0 1025.8
18:30 20.2 57 11.4 1.9 6.1 NNW 0.0 1026.0
18:40 20.0 58 11.5 0.4 5.0 NNW 0.0 1025.8
18:50 19.9 61 12.2 1.9 6.1 SSW 0.0 1025.7
19:00 19.8 61 12.1 1.8 6.1 SSE 0.0 1025.5
19:10 19.7 62 12.2 1.8 5.0 SE 0.0 1025.4
19:20 19.4 64 12.4 1.1 3.6 SE 0.0 1025.2
19:30 19.0 64 12.0 1.7 5.0 ENE 0.0 1024.7
19:40 19.0 64 12.0 1.3 5.0 N 0.0 1024.9
19:50 18.7 65 12.0 0.1 2.5 N 0.0 1024.8
20:00 18.6 66 12.1 0.0 2.5 NNE 0.0 1024.7
20:10 18.4 67 12.2 0.4 5.0 NE 0.0 1024.3
20:20 18.5 66 12.0 2.6 5.0 NE 0.0 1024.3
20:30 18.5 66 12.0 0.7 3.6 N 0.0 1024.3
20:40 18.1 66 11.7 0.5 3.6 NW 0.0 1024.4
20:50 17.9 67 11.7 0.1 2.5 NW 0.0 1024.4
21:00 17.7 69 11.9 1.2 3.6 N 0.0 1024.4
21:10 17.7 69 11.9 2.6 6.1 NW 0.0 1024.3
21:20 17.7 70 12.2 2.3 5.0 NNW 0.0 1024.4
21:30 17.9 70 12.4 2.2 6.1 N 0.0 1024.4
21:40 17.9 70 12.4 0.5 3.6 N 0.0 1024.6
21:50 17.9 70 12.4 2.2 5.0 NW 0.0 1024.6
22:00 18.0 69 12.2 1.2 5.0 NNW 0.0 1024.5
22:10 17.9 71 12.6 0.7 3.6 NW 0.0 1024.5
22:20 17.8 71 12.5 0.5 5.0 NNE 0.0 1024.2
22:30 17.9 72 12.8 3.1 7.2 N 0.0 1024.0
22:40 18.2 72 13.1 6.0 13.3 N 0.0 1024.0
22:50 18.5 72 13.4 6.0 13.3 NNE 0.0 1023.8
23:00 18.6 72 13.5 3.4 9.7 N 0.0 1023.9
23:10 18.7 71 13.3 4.2 9.7 N 0.0 1023.7
23:20 18.7 71 13.3 3.3 9.7 NNW 0.0 1023.6
23:30 18.7 71 13.3 3.7 8.6 N 0.0 1023.5
23:40 18.7 71 13.3 3.9 9.7 NNW 0.0 1023.3
23:50 18.7 71 13.3 3.9 9.7 NNW 0.0 1023.5